createdAt,value
2018-04-12T00:01:21.747Z,57.57
2018-04-12T00:03:48.428Z,54.13
2018-04-12T00:06:15.132Z,60.70
2018-04-12T00:08:41.846Z,70.27
2018-04-12T00:11:08.563Z,68.93
2018-04-12T00:13:35.232Z,76.93
2018-04-12T00:16:01.928Z,84.07
2018-04-12T00:18:28.753Z,89.03
2018-04-12T00:20:55.454Z,91.20
2018-04-12T00:23:22.128Z,93.37
2018-04-12T00:25:48.807Z,97.97
2018-04-12T00:28:15.522Z,94.97
2018-04-12T00:30:42.199Z,87.13
2018-04-12T00:33:08.995Z,96.90
2018-04-12T00:35:35.715Z,97.77
2018-04-12T00:38:02.500Z,92.07
2018-04-12T00:40:29.181Z,97.00
2018-04-12T00:42:55.887Z,107.43
2018-04-12T00:45:22.595Z,98.67
2018-04-12T00:47:49.287Z,95.33
2018-04-12T00:50:15.999Z,101.03
2018-04-12T00:52:42.732Z,100.77
2018-04-12T00:55:09.434Z,103.43
2018-04-12T00:57:36.122Z,102.27
2018-04-12T01:00:02.832Z,102.30
2018-04-12T01:02:29.579Z,116.37
2018-04-12T01:04:56.268Z,102.03
2018-04-12T01:07:22.995Z,105.70
2018-04-12T01:09:49.659Z,111.43
2018-04-12T01:12:16.376Z,113.20
2018-04-12T01:14:43.063Z,122.27
2018-04-12T01:17:09.754Z,116.53
2018-04-12T01:19:36.494Z,108.20
2018-04-12T01:22:03.212Z,101.00
2018-04-12T01:24:29.896Z,110.50
2018-04-12T01:26:56.575Z,119.27
2018-04-12T01:29:23.322Z,110.27
2018-04-12T01:31:50.003Z,125.97
2018-04-12T01:34:16.711Z,117.37
2018-04-12T01:36:43.415Z,119.47
2018-04-12T01:39:10.095Z,109.37
2018-04-12T01:41:36.807Z,109.20
2018-04-12T01:44:03.499Z,112.37
2018-04-12T01:46:30.196Z,112.70
2018-04-12T01:48:56.906Z,116.50
2018-04-12T01:51:23.626Z,123.70
2018-04-12T01:53:50.405Z,108.27
2018-04-12T01:56:17.091Z,106.93
2018-04-12T01:58:43.767Z,116.37
2018-04-12T02:01:10.493Z,110.77
2018-04-12T02:03:37.170Z,107.47
2018-04-12T02:06:03.875Z,114.77
2018-04-12T02:08:30.568Z,112.23
2018-04-12T02:10:57.288Z,105.77
2018-04-12T02:13:23.975Z,102.37
2018-04-12T02:15:50.783Z,101.37
2018-04-12T02:18:17.462Z,99.83
2018-04-12T02:20:44.150Z,96.50
2018-04-12T02:23:10.844Z,97.40
2018-04-12T02:25:37.515Z,95.80
2018-04-12T02:28:04.228Z,101.40
2018-04-12T02:30:30.918Z,97.57
2018-04-12T02:32:57.636Z,100.83
2018-04-12T02:35:24.346Z,92.53
2018-04-12T02:37:51.017Z,93.97
2018-04-12T02:40:17.739Z,92.53
2018-04-12T02:42:44.431Z,94.23
2018-04-12T02:45:11.111Z,94.90
2018-04-12T02:47:37.812Z,87.80
2018-04-12T02:50:04.495Z,91.37
2018-04-12T02:52:31.206Z,92.20
2018-04-12T02:54:57.884Z,90.07
2018-04-12T02:57:24.582Z,87.40
2018-04-12T02:59:51.284Z,87.10
2018-04-12T03:02:17.983Z,88.03
2018-04-12T03:04:44.695Z,90.80
2018-04-12T03:07:11.411Z,88.37
2018-04-12T03:09:38.103Z,83.57
2018-04-12T03:12:05.476Z,84.23
2018-04-12T03:14:32.189Z,81.77
2018-04-12T03:16:58.979Z,82.23
2018-04-12T03:19:25.663Z,81.90
2018-04-12T03:21:52.472Z,75.73
2018-04-12T03:24:19.167Z,82.37
2018-04-12T03:26:45.870Z,78.13
2018-04-12T03:29:12.615Z,82.93
2018-04-12T03:31:39.323Z,77.83
2018-04-12T03:34:06.008Z,76.23
2018-04-12T03:36:32.779Z,77.33
2018-04-12T03:38:59.462Z,81.40
2018-04-12T03:41:26.159Z,76.40
2018-04-12T03:43:52.838Z,77.90
2018-04-12T03:46:19.547Z,72.20
2018-04-12T03:48:46.292Z,74.27
2018-04-12T03:51:12.931Z,76.00
2018-04-12T03:53:39.706Z,70.57
2018-04-12T03:56:06.406Z,75.37
2018-04-12T03:58:33.235Z,64.80
2018-04-12T04:00:59.911Z,68.53
2018-04-12T04:03:26.612Z,70.20
2018-04-12T04:05:53.303Z,66.37
2018-04-12T04:08:20.003Z,69.00
2018-04-12T04:10:46.699Z,66.33
2018-04-12T04:13:13.503Z,63.03
2018-04-12T04:15:45.963Z,69.23
2018-04-12T04:18:18.625Z,63.77
2018-04-12T04:20:51.137Z,69.40
2018-04-12T04:23:17.795Z,67.20
2018-04-12T04:25:44.473Z,70.53
2018-04-12T04:28:11.196Z,71.53
2018-04-12T04:30:37.864Z,61.43
2018-04-12T04:33:05.550Z,72.33
2018-04-12T04:35:32.286Z,72.60
2018-04-12T04:37:58.980Z,67.23
2018-04-12T04:40:25.686Z,63.47
2018-04-12T04:42:52.451Z,70.53
2018-04-12T04:45:19.132Z,68.23
2018-04-12T04:47:45.828Z,70.97
2018-04-12T04:50:12.619Z,70.60
2018-04-12T04:52:39.325Z,61.83
2018-04-12T04:55:06.020Z,69.63
2018-04-12T04:57:32.704Z,70.60
2018-04-12T04:59:59.393Z,66.80
2018-04-12T05:02:26.084Z,62.87
2018-04-12T05:04:52.773Z,67.20
2018-04-12T05:07:19.542Z,64.73
2018-04-12T05:09:46.253Z,65.00
2018-04-12T05:12:12.975Z,70.50
2018-04-12T05:14:39.668Z,65.53
2018-04-12T05:17:06.400Z,63.23
2018-04-12T05:19:33.088Z,63.03
2018-04-12T05:21:59.771Z,61.77
2018-04-12T05:24:26.624Z,64.70
2018-04-12T05:26:53.299Z,68.53
2018-04-12T05:29:20.080Z,64.03
2018-04-12T05:31:46.775Z,62.33
2018-04-12T05:34:13.455Z,67.73
2018-04-12T05:36:40.183Z,62.33
2018-04-12T05:39:06.896Z,62.00
2018-04-12T05:41:33.679Z,63.63
2018-04-12T05:44:00.347Z,63.23
2018-04-12T05:46:27.040Z,67.27
2018-04-12T05:48:53.715Z,60.33
2018-04-12T05:51:20.591Z,61.50
2018-04-12T05:53:47.276Z,63.67
2018-04-12T05:56:13.993Z,63.27
2018-04-12T05:58:40.630Z,59.80
2018-04-12T06:01:07.335Z,68.17
2018-04-12T06:03:34.054Z,60.77
2018-04-12T06:06:00.894Z,63.80
2018-04-12T06:08:27.615Z,61.73
2018-04-12T06:10:54.334Z,63.43
2018-04-12T06:13:21.031Z,62.03
2018-04-12T06:15:47.706Z,57.33
2018-04-12T06:18:14.419Z,63.10
2018-04-12T06:20:41.112Z,63.43
2018-04-12T06:23:07.812Z,61.60
2018-04-12T06:25:34.505Z,60.70
2018-04-12T06:28:01.204Z,64.00
2018-04-12T06:30:27.880Z,58.87
2018-04-12T06:32:54.571Z,59.83
2018-04-12T06:35:21.348Z,57.90
2018-04-12T06:37:48.048Z,59.30
2018-04-12T06:40:14.752Z,59.83
2018-04-12T06:42:41.431Z,59.33
2018-04-12T06:45:08.131Z,61.10
2018-04-12T06:47:34.816Z,55.20
2018-04-12T06:50:01.508Z,62.63
2018-04-12T06:52:28.198Z,59.47
2018-04-12T06:54:54.911Z,61.70
2018-04-12T06:57:21.620Z,56.80
2018-04-12T06:59:48.322Z,63.80
2018-04-12T07:02:15.317Z,66.33
2018-04-12T07:04:42.004Z,63.60
2018-04-12T07:07:08.767Z,69.43
2018-04-12T07:09:35.475Z,68.03
2018-04-12T07:12:02.175Z,67.57
2018-04-12T07:14:28.875Z,69.93
2018-04-12T07:16:55.647Z,61.70
2018-04-12T07:19:22.351Z,65.90
2018-04-12T07:21:49.063Z,72.40
2018-04-12T07:24:15.740Z,65.03
2018-04-12T07:26:42.444Z,64.90
2018-04-12T07:29:09.124Z,67.30
2018-04-12T07:31:35.825Z,67.17
2018-04-12T07:34:02.550Z,66.00
2018-04-12T07:36:29.383Z,62.17
2018-04-12T07:38:56.056Z,66.20
2018-04-12T07:41:22.779Z,64.70
2018-04-12T07:43:49.524Z,67.10
2018-04-12T07:46:16.164Z,68.03
2018-04-12T07:48:42.927Z,64.40
2018-04-12T07:51:09.611Z,70.33
2018-04-12T07:53:36.314Z,66.50
2018-04-12T07:56:03.015Z,62.87
2018-04-12T07:58:29.728Z,64.37
2018-04-12T08:00:56.427Z,64.50
2018-04-12T08:03:23.251Z,68.20
2018-04-12T08:05:49.933Z,62.47
2018-04-12T08:08:16.638Z,64.63
2018-04-12T08:10:43.323Z,62.93
2018-04-12T08:13:10.032Z,62.10
2018-04-12T08:15:36.839Z,67.37
2018-04-12T08:18:03.527Z,63.70
2018-04-12T08:20:30.231Z,72.60
2018-04-12T08:22:57.038Z,65.93
2018-04-12T08:25:23.731Z,72.47
2018-04-12T08:27:50.417Z,67.57
2018-04-12T08:30:17.135Z,71.03
2018-04-12T08:32:43.812Z,67.57
2018-04-12T08:35:10.522Z,75.40
2018-04-12T08:37:37.228Z,68.67
2018-04-12T08:40:03.945Z,64.10
2018-04-12T08:42:30.661Z,63.83
2018-04-12T08:44:57.340Z,75.30
2018-04-12T08:47:24.284Z,66.90
2018-04-12T08:49:51.003Z,64.93
2018-04-12T08:52:17.699Z,65.63
2018-04-12T08:54:44.437Z,68.93
2018-04-12T08:57:11.116Z,68.17
2018-04-12T08:59:37.801Z,72.50
2018-04-12T09:02:04.671Z,72.43
2018-04-12T09:04:31.366Z,69.43
2018-04-12T09:06:58.063Z,70.13
2018-04-12T09:09:24.755Z,71.03
2018-04-12T09:11:51.443Z,70.47
2018-04-12T09:14:18.200Z,67.73
2018-04-12T09:16:44.895Z,67.10
2018-04-12T09:19:11.585Z,67.17
2018-04-12T09:21:38.287Z,73.10
2018-04-12T09:24:05.053Z,67.03
2018-04-12T09:26:31.750Z,69.47
2018-04-12T09:28:58.431Z,71.10
2018-04-12T09:31:25.139Z,66.93
2018-04-12T09:33:51.832Z,68.93
2018-04-12T09:36:18.571Z,68.43
2018-04-12T09:38:45.260Z,67.00
2018-04-12T09:41:11.947Z,70.47
2018-04-12T09:43:38.699Z,64.90
2018-04-12T09:46:05.487Z,63.57
2018-04-12T09:48:32.180Z,59.77
2018-04-12T11:07:51.751Z,48.30
2018-04-12T11:10:18.463Z,47.27
2018-04-12T11:12:45.161Z,45.97
2018-04-12T11:15:11.984Z,44.80
2018-04-12T11:17:38.691Z,48.33
2018-04-12T11:20:05.396Z,46.53
2018-04-12T11:22:32.095Z,44.30
2018-04-12T11:24:58.837Z,44.80
2018-04-12T11:27:25.528Z,43.67
2018-04-12T11:29:52.271Z,43.90
2018-04-12T11:32:18.956Z,42.63
2018-04-12T11:34:45.627Z,43.53
2018-04-12T11:37:12.328Z,42.17
2018-04-12T11:39:39.013Z,42.37
2018-04-12T11:42:05.704Z,44.90
2018-04-12T11:44:32.419Z,41.27
2018-04-12T11:46:59.111Z,41.43
2018-04-12T11:49:25.813Z,43.03
2018-04-12T11:51:52.508Z,42.73
2018-04-12T11:54:19.224Z,43.77
2018-04-12T11:56:45.941Z,43.47
2018-04-12T11:59:12.596Z,41.47
2018-04-12T12:01:39.318Z,41.20
2018-04-12T12:04:06.092Z,39.57
2018-04-12T12:06:32.779Z,40.20
2018-04-12T12:08:59.465Z,40.90
2018-04-12T12:11:26.179Z,39.57
2018-04-12T12:13:52.915Z,39.97
2018-04-12T12:16:19.622Z,41.70
2018-04-12T12:18:46.324Z,42.10
2018-04-12T12:21:13.010Z,39.77
2018-04-12T12:23:39.722Z,39.13
2018-04-12T12:26:06.396Z,41.60
2018-04-12T12:28:33.167Z,40.77
2018-04-12T12:30:59.817Z,41.60
2018-04-12T12:33:26.516Z,39.87
2018-04-12T12:35:53.199Z,43.13
2018-04-12T12:38:19.888Z,41.47
2018-04-12T12:40:46.591Z,39.53
2018-04-12T12:43:13.295Z,41.90
2018-04-12T12:45:39.991Z,42.70
2018-04-12T12:48:06.672Z,40.73
2018-04-12T12:50:33.443Z,39.73
2018-04-12T12:53:00.144Z,42.40
2018-04-12T12:55:26.848Z,41.50
2018-04-12T12:57:53.564Z,39.17
2018-04-12T13:00:20.319Z,42.40
2018-04-12T13:02:47.011Z,41.73
2018-04-12T13:05:13.720Z,40.80
2018-04-12T13:07:40.427Z,40.90
2018-04-12T13:10:07.134Z,38.70
2018-04-12T13:12:33.807Z,42.83
2018-04-12T13:15:00.724Z,40.57
2018-04-12T13:17:27.415Z,41.00
2018-04-12T13:19:54.124Z,39.13
2018-04-12T13:22:20.847Z,40.87
2018-04-12T13:24:47.644Z,39.83
2018-04-12T13:27:14.332Z,40.97
2018-04-12T13:29:41.265Z,39.97
2018-04-12T13:32:07.932Z,42.70
2018-04-12T13:34:34.666Z,41.03
2018-04-12T13:37:01.335Z,42.50
2018-04-12T13:39:28.026Z,41.23
2018-04-12T13:41:54.724Z,41.47
2018-04-12T13:44:21.442Z,41.30
2018-04-12T13:46:48.153Z,41.10
2018-04-12T13:49:14.979Z,41.27
2018-04-12T13:51:41.652Z,42.10
2018-04-12T13:54:08.348Z,41.43
2018-04-12T13:56:35.104Z,42.50
2018-04-12T13:59:01.786Z,41.70
2018-04-12T14:01:28.636Z,42.60
2018-04-12T14:03:55.364Z,40.97
2018-04-12T14:06:22.140Z,41.10
2018-04-12T14:08:48.919Z,42.07
2018-04-12T14:11:15.630Z,42.13
2018-04-12T14:13:42.319Z,42.60
2018-04-12T14:16:09.013Z,41.10
2018-04-12T14:18:35.748Z,43.90
2018-04-12T14:21:02.560Z,39.77
2018-04-12T14:23:29.298Z,41.27
2018-04-12T14:25:56.008Z,41.13
2018-04-12T14:28:22.838Z,40.93
2018-04-12T14:30:49.511Z,38.80
2018-04-12T14:33:16.259Z,40.77
2018-04-12T14:35:42.956Z,41.17
2018-04-12T14:38:09.685Z,41.43
2018-04-12T14:40:36.395Z,40.87
2018-04-12T14:43:03.144Z,39.73
2018-04-12T14:45:29.891Z,39.73
2018-04-12T14:47:56.631Z,41.67
2018-04-12T14:50:23.365Z,38.70
2018-04-12T14:52:50.072Z,39.50
2018-04-12T14:55:16.779Z,39.30
2018-04-12T14:57:43.504Z,41.90
2018-04-12T15:00:10.187Z,39.70
2018-04-12T15:02:36.928Z,41.63
2018-04-12T15:05:03.608Z,40.73
2018-04-12T15:07:30.317Z,38.70
2018-04-12T15:09:57.083Z,43.63
2018-04-12T15:12:23.767Z,38.60
2018-04-12T15:14:50.468Z,39.77
2018-04-12T15:17:17.258Z,38.03
2018-04-12T15:19:43.956Z,40.47
2018-04-12T15:22:10.639Z,39.07
2018-04-12T15:24:37.392Z,41.53
2018-04-12T15:27:04.090Z,40.37
2018-04-12T15:29:30.800Z,37.73
2018-04-12T15:31:57.501Z,38.80
2018-04-12T15:34:24.277Z,40.23
2018-04-12T15:36:50.964Z,37.83
2018-04-12T15:39:17.677Z,35.87
2018-04-12T15:41:44.537Z,36.80
2018-04-12T15:44:11.228Z,37.40
2018-04-12T15:46:37.952Z,40.57
2018-04-12T15:49:04.628Z,37.23
2018-04-12T15:51:31.333Z,37.70
2018-04-12T15:53:58.025Z,34.83
2018-04-12T15:56:24.733Z,37.67
2018-04-12T15:58:51.409Z,36.67
2018-04-12T16:01:18.126Z,35.70
2018-04-12T16:03:44.805Z,35.80
2018-04-12T16:06:11.507Z,34.23
2018-04-12T16:08:38.191Z,38.23
2018-04-12T16:11:04.880Z,37.97
2018-04-12T16:13:31.600Z,37.13
2018-04-12T16:15:58.313Z,37.47
2018-04-12T16:18:25.009Z,35.00
2018-04-12T16:20:51.735Z,37.20
2018-04-12T16:23:18.443Z,31.87
2018-04-12T16:25:45.120Z,35.73
2018-04-12T16:28:11.819Z,35.10
2018-04-12T16:30:38.780Z,35.50
2018-04-12T16:33:05.455Z,35.20
2018-04-12T16:35:32.169Z,35.27
2018-04-12T16:37:58.853Z,37.27
2018-04-12T16:40:25.565Z,35.23
2018-04-12T16:42:52.277Z,33.97
2018-04-12T16:45:19.076Z,36.00
2018-04-12T16:47:45.769Z,33.73
2018-04-12T16:50:12.471Z,35.87
2018-04-12T16:52:39.167Z,34.90
2018-04-12T16:55:05.863Z,36.30
2018-04-12T16:57:32.551Z,35.30
2018-04-12T16:59:59.476Z,32.37
2018-04-12T17:02:26.348Z,34.57
2018-04-12T17:04:53.079Z,35.03
2018-04-12T17:07:19.923Z,34.23
2018-04-12T17:09:46.713Z,30.17
2018-04-12T17:12:13.533Z,33.33
2018-04-12T17:14:40.632Z,36.40
2018-04-12T17:17:07.361Z,34.70
2018-04-12T17:19:34.181Z,35.80
2018-04-12T17:22:00.880Z,30.43
2018-04-12T17:24:27.569Z,32.67
2018-04-12T17:26:54.437Z,31.57
2018-04-12T17:29:21.146Z,31.70
2018-04-12T17:31:47.864Z,34.63
2018-04-12T17:34:14.590Z,32.90
2018-04-12T17:36:41.300Z,31.07
2018-04-12T17:39:08.009Z,35.00
2018-04-12T17:41:34.691Z,38.23
2018-04-12T17:44:01.403Z,37.70
2018-04-12T17:46:28.103Z,38.10
2018-04-12T17:48:54.863Z,36.33
2018-04-12T17:51:21.520Z,37.90
2018-04-12T17:53:48.453Z,42.03
2018-04-12T17:56:15.152Z,41.17
2018-04-12T17:58:41.840Z,40.70
2018-04-12T18:01:08.560Z,42.73
2018-04-12T18:03:35.255Z,45.60
2018-04-12T18:06:02.000Z,42.10
2018-04-12T18:08:28.683Z,45.60
2018-04-12T18:10:55.395Z,46.27
2018-04-12T18:13:22.100Z,49.17
2018-04-12T18:15:48.780Z,45.73
2018-04-12T18:18:15.549Z,50.87
2018-04-12T18:20:42.225Z,48.97
2018-04-12T18:23:08.929Z,46.73
2018-04-12T18:25:35.612Z,52.67
2018-04-12T18:28:02.332Z,52.67
2018-04-12T18:30:29.029Z,49.30
2018-04-12T18:32:55.744Z,57.40
2018-04-12T18:35:22.468Z,48.23
2018-04-12T18:37:49.233Z,53.30
2018-04-12T18:40:15.943Z,56.30
2018-04-12T18:42:42.659Z,49.63
2018-04-12T18:45:09.359Z,47.20
2018-04-12T18:47:36.110Z,51.70
2018-04-12T18:50:02.815Z,58.53
2018-04-12T18:52:29.511Z,56.37
2018-04-12T18:54:56.265Z,52.47
2018-04-12T18:57:22.956Z,54.67
2018-04-12T18:59:49.661Z,52.10
2018-04-12T19:02:16.375Z,55.33
2018-04-12T19:04:43.096Z,54.40
2018-04-12T19:07:09.841Z,59.20
2018-04-12T19:09:36.544Z,47.30
2018-04-12T19:12:03.272Z,54.83
2018-04-12T19:14:29.972Z,50.57
2018-04-12T19:16:56.696Z,52.60
2018-04-12T19:19:23.412Z,62.93
2018-04-12T19:21:50.149Z,58.93
2018-04-12T19:24:16.840Z,57.10
2018-04-12T19:26:43.557Z,54.27
2018-04-12T19:29:10.275Z,57.67
2018-04-12T19:31:36.985Z,57.07
2018-04-12T19:34:03.735Z,49.87
2018-04-12T19:36:30.430Z,49.17
2018-04-12T19:38:57.167Z,60.83
2018-04-12T19:41:23.891Z,52.17
2018-04-12T19:43:50.610Z,53.83
2018-04-12T19:46:17.343Z,55.90
2018-04-12T19:48:44.048Z,55.87
2018-04-12T19:51:10.760Z,60.77
2018-04-12T19:53:37.451Z,63.43
2018-04-12T19:56:04.175Z,62.97
2018-04-12T19:58:30.890Z,57.20
2018-04-12T20:00:57.815Z,52.40
2018-04-12T20:03:24.515Z,52.53
2018-04-12T20:05:51.226Z,53.10
2018-04-12T20:08:17.949Z,58.37
2018-04-12T20:10:44.643Z,54.70
2018-04-12T20:13:11.355Z,59.43
2018-04-12T20:15:38.187Z,48.63
2018-04-12T20:18:04.918Z,46.37
2018-04-12T20:20:31.629Z,52.53
2018-04-12T20:22:58.331Z,43.90
2018-04-12T20:25:25.060Z,51.03
2018-04-12T20:27:51.768Z,44.80
2018-04-12T20:30:18.472Z,55.53
2018-04-12T20:32:45.187Z,28.30
2018-04-12T20:35:11.892Z,41.60
2018-04-12T20:37:38.598Z,25.23
2018-04-12T20:40:05.319Z,15.60
2018-04-12T20:42:32.065Z,19.97
2018-04-12T20:44:58.721Z,17.20
2018-04-12T20:47:25.443Z,21.97
2018-04-12T20:49:52.128Z,26.23
2018-04-12T20:52:18.935Z,42.33
2018-04-12T20:54:45.643Z,43.40
2018-04-12T20:57:12.362Z,42.47
2018-04-12T20:59:39.069Z,35.93
2018-04-12T21:02:05.758Z,36.10
2018-04-12T21:04:32.463Z,29.50
2018-04-12T21:06:59.192Z,32.20
2018-04-12T21:09:25.920Z,39.90
2018-04-12T21:11:52.617Z,28.47
2018-04-12T21:14:19.333Z,18.20
2018-04-12T21:16:46.030Z,14.17
2018-04-12T21:19:12.725Z,11.17
2018-04-12T21:21:39.448Z,19.53
2018-04-12T21:24:06.143Z,19.90
2018-04-12T21:26:32.814Z,10.33
2018-04-12T21:28:59.501Z,13.47
2018-04-12T21:31:26.217Z,10.73
2018-04-12T21:33:52.912Z,20.00
2018-04-12T21:36:19.761Z,27.00
2018-04-12T21:38:46.449Z,39.63
2018-04-12T21:41:13.273Z,39.30
2018-04-12T21:43:39.980Z,13.03
2018-04-12T21:46:06.660Z,10.33
2018-04-12T21:48:33.374Z,11.63
2018-04-12T21:51:00.057Z,8.27
2018-04-12T21:53:26.732Z,9.83
2018-04-12T21:55:53.472Z,9.37
2018-04-12T21:58:20.171Z,13.30
2018-04-12T22:00:46.875Z,31.10
2018-04-12T22:03:13.572Z,12.27
2018-04-12T22:05:40.272Z,9.10
2018-04-12T22:08:07.036Z,18.80
2018-04-12T22:10:33.752Z,29.33
2018-04-12T22:13:00.423Z,20.47
2018-04-12T22:15:27.136Z,29.60
2018-04-12T22:17:53.869Z,22.20
2018-04-12T22:20:20.559Z,32.43
2018-04-12T22:22:47.249Z,40.93
2018-04-12T22:25:13.956Z,12.87
2018-04-12T22:27:40.674Z,7.57
2018-04-12T22:30:07.360Z,8.90
2018-04-12T22:32:34.097Z,20.97
2018-04-12T22:35:00.804Z,11.83
2018-04-12T22:37:27.488Z,13.83
2018-04-12T22:39:54.209Z,12.50
2018-04-12T22:42:21.013Z,25.10
2018-04-12T22:44:47.715Z,31.30
2018-04-12T22:47:14.508Z,19.40
2018-04-12T22:49:41.223Z,10.80
2018-04-12T22:52:07.921Z,12.17
2018-04-12T22:54:34.618Z,26.10
2018-04-12T22:57:01.452Z,26.80
2018-04-12T22:59:28.150Z,22.27
2018-04-12T23:01:54.963Z,21.80
2018-04-12T23:04:21.645Z,23.57
2018-04-12T23:06:48.317Z,22.83
2018-04-12T23:09:15.029Z,28.13
2018-04-12T23:11:41.720Z,30.70
2018-04-12T23:14:08.421Z,29.93
2018-04-12T23:16:35.099Z,35.27
2018-04-12T23:19:01.900Z,30.33
2018-04-12T23:21:28.596Z,30.53
2018-04-12T23:23:55.344Z,30.40
2018-04-12T23:26:22.051Z,31.10
2018-04-12T23:28:48.748Z,30.57
2018-04-12T23:31:15.455Z,16.87
2018-04-12T23:33:42.140Z,17.73
2018-04-12T23:36:08.851Z,22.80
2018-04-12T23:38:35.552Z,21.77
2018-04-12T23:41:02.355Z,16.83
2018-04-12T23:43:29.049Z,20.13
2018-04-12T23:45:55.755Z,20.93
2018-04-12T23:48:22.443Z,10.47
2018-04-12T23:50:49.134Z,12.83
2018-04-12T23:53:15.840Z,14.57
2018-04-12T23:55:42.521Z,19.00
2018-04-12T23:58:09.228Z,28.37
